Time;durP1;ratioP1;P1;durP2;ratioP2;P2;SDS_P1;SDS_P2;PMS_P1;PMS_P2;Temp;Humidity;BMP_temperature;BMP_pressure;BME280_temperature;BME280_humidity;BME280_pressure;Samples;Min_cycle;Max_cycle;Signal;HPM_P1;HPM_P2
2021/03/27 00:01:59;;;;;;;2.22;0.88;;;17.60;56.30;;;;;;6214073;23;20444;-72
2021/03/27 00:04:30;;;;;;;2.78;0.77;;;17.60;56.30;;;;;;6214241;23;20000;-72
2021/03/27 00:07:08;;;;;;;2.08;0.60;;;17.50;56.30;;;;;;6214079;23;20032;-74
2021/03/27 00:10:08;;;;;;;3.03;0.65;;;17.50;56.30;;;;;;6214023;23;20019;-73
2021/03/27 00:12:45;;;;;;;2.22;0.68;;;17.50;56.30;;;;;;6213163;23;20495;-72
2021/03/27 00:15:37;;;;;;;3.42;0.77;;;17.40;56.20;;;;;;6214331;23;20071;-75
2021/03/27 00:18:10;;;;;;;2.83;0.70;;;17.40;56.30;;;;;;6214399;23;19997;-76
2021/03/27 00:20:55;;;;;;;4.05;1.10;;;17.40;56.30;;;;;;6213922;23;20384;-75
2021/03/27 00:23:33;;;;;;;2.00;0.80;;;17.30;56.30;;;;;;6214114;23;20031;-75
2021/03/27 00:26:24;;;;;;;3.65;1.00;;;17.30;56.30;;;;;;6213946;23;20460;-72
2021/03/27 00:28:56;;;;;;;2.22;0.73;;;17.30;56.40;;;;;;6213648;23;20004;-74
2021/03/27 00:31:27;;;;;;;2.40;0.82;;;17.20;56.30;;;;;;6214112;23;20030;-75
2021/03/27 00:34:04;;;;;;;2.85;1.23;;;17.20;56.30;;;;;;6213988;23;20000;-74
2021/03/27 00:36:38;;;;;;;4.00;0.70;;;17.20;56.30;;;;;;6213752;23;19997;-73
2021/03/27 00:39:39;;;;;;;4.80;0.88;;;17.20;56.30;;;;;;6213775;23;20005;-74
2021/03/27 00:42:11;;;;;;;2.30;0.60;;;17.20;56.90;;;;;;6214422;23;20075;-73
2021/03/27 00:44:49;;;;;;;4.55;1.02;;;17.20;56.20;;;;;;6213931;23;20016;-73
2021/03/27 00:47:17;;;;;;;5.20;1.17;;;17.10;56.30;;;;;;6213813;23;20001;-74
2021/03/27 00:50:21;;;;;;;4.63;1.25;;;17.10;56.30;;;;;;6213248;23;20035;-74
2021/03/27 00:52:50;;;;;;;3.92;0.77;;;17.10;56.30;;;;;;6167057;23;20333;-75
2021/03/27 00:55:28;;;;;;;4.80;1.27;;;17.00;56.30;;;;;;6213613;23;20001;-73
2021/03/27 00:58:08;;;;;;;4.28;1.35;;;17.00;56.30;;;;;;6213760;23;20001;-74
2021/03/27 01:00:42;;;;;;;5.47;1.67;;;17.00;56.20;;;;;;6214279;23;20369;-73
2021/03/27 01:03:30;;;;;;;3.97;0.88;;;17.00;56.30;;;;;;6214072;23;20000;-74
2021/03/27 01:05:56;;;;;;;2.85;0.88;;;17.00;56.30;;;;;;6212584;23;20104;-74
2021/03/27 01:08:24;;;;;;;4.75;0.90;;;16.90;56.30;;;;;;6213664;23;20062;-73
2021/03/27 01:10:59;;;;;;;5.82;1.38;;;16.90;56.80;;;;;;6213359;23;20063;-75
2021/03/27 01:13:39;;;;;;;5.78;1.20;;;16.90;56.30;;;;;;6214394;23;19997;-74
2021/03/27 01:16:07;;;;;;;5.28;1.20;;;16.90;56.30;;;;;;6215687;23;20467;-73
2021/03/27 01:18:48;;;;;;;4.25;1.30;;;16.90;56.30;;;;;;6215291;23;20459;-75
2021/03/27 01:21:23;;;;;;;4.70;1.08;;;16.80;56.40;;;;;;6215542;23;20031;-74
2021/03/27 01:24:00;;;;;;;4.45;1.17;;;16.80;56.40;;;;;;6215857;23;20001;-72
2021/03/27 01:26:29;;;;;;;4.05;0.90;;;16.80;56.40;;;;;;6215581;23;20039;-75
2021/03/27 01:29:03;;;;;;;5.07;1.70;;;16.70;56.40;;;;;;6215459;23;20004;-74
2021/03/27 01:31:45;;;;;;;3.33;0.98;;;16.80;56.40;;;;;;6215408;23;20017;-72
2021/03/27 01:34:10;;;;;;;4.07;0.98;;;16.70;56.50;;;;;;6215822;23;20429;-72
2021/03/27 01:36:51;;;;;;;5.10;1.00;;;16.70;56.50;;;;;;6215760;23;20005;-73
2021/03/27 01:39:25;;;;;;;3.78;0.95;;;16.70;56.40;;;;;;6188756;23;20079;-71
2021/03/27 01:41:59;;;;;;;4.72;1.30;;;16.70;56.50;;;;;;6215349;23;20008;-73
2021/03/27 01:44:48;;;;;;;4.93;1.20;;;16.60;56.50;;;;;;6215607;23;20052;-74
2021/03/27 01:47:45;;;;;;;4.75;1.13;;;16.60;56.50;;;;;;6215261;23;20005;-76
2021/03/27 01:50:19;;;;;;;3.67;0.93;;;16.60;56.40;;;;;;6215540;23;20008;-74
2021/03/27 01:52:58;;;;;;;5.57;1.85;;;16.60;56.50;;;;;;6215482;23;20448;-75
2021/03/27 01:56:10;;;;;;;2.28;0.80;;;16.50;56.50;;;;;;6215551;23;20078;-75
2021/03/27 01:58:48;;;;;;;4.47;1.15;;;16.50;56.60;;;;;;6093954;23;20011;-74
2021/03/27 02:01:29;;;;;;;4.35;1.30;;;16.50;56.70;;;;;;6209545;23;20464;-74
2021/03/27 02:04:08;;;;;;;5.05;1.27;;;16.50;56.70;;;;;;6214994;23;20028;-73
2021/03/27 02:06:46;;;;;;;3.60;0.90;;;16.40;56.60;;;;;;6215123;23;20063;-73
2021/03/27 02:09:33;;;;;;;5.03;1.30;;;16.40;56.60;;;;;;6215259;23;20450;-75
2021/03/27 02:12:20;;;;;;;4.75;1.10;;;16.40;56.60;;;;;;6215204;23;20001;-74
2021/03/27 02:14:53;;;;;;;3.05;1.00;;;16.40;56.60;;;;;;6215176;23;20083;-74
2021/03/27 02:17:30;;;;;;;5.97;1.50;;;16.30;56.70;;;;;;6214836;23;20023;-74
2021/03/27 02:20:18;;;;;;;4.40;1.10;;;16.30;56.70;;;;;;6215520;23;20012;-74
2021/03/27 02:23:13;;;;;;;4.15;1.10;;;16.30;56.90;;;;;;6215091;23;20007;-75
2021/03/27 02:26:05;;;;;;;3.08;1.00;;;16.30;56.90;;;;;;6214522;23;19997;-71
2021/03/27 02:28:55;;;;;;;2.90;0.95;;;16.20;56.90;;;;;;6214959;23;20005;-75
2021/03/27 02:31:43;;;;;;;4.03;1.23;;;16.20;56.90;;;;;;6214858;23;20327;-74
2021/03/27 02:34:28;;;;;;;6.10;1.42;;;16.10;57.50;;;;;;6215225;23;20012;-75
2021/03/27 02:37:08;;;;;;;2.60;0.70;;;16.10;57.00;;;;;;6214909;23;20008;-74
2021/03/27 02:39:47;;;;;;;4.53;1.30;;;16.10;57.00;;;;;;6214786;23;20357;-74
2021/03/27 02:42:34;;;;;;;6.35;1.90;;;16.10;56.90;;;;;;6215264;23;20425;-75
2021/03/27 02:45:15;;;;;;;6.68;1.17;;;16.10;57.00;;;;;;6215057;23;19997;-76
2021/03/27 02:47:54;;;;;;;4.95;1.30;;;16.00;57.00;;;;;;6215228;23;20004;-75
2021/03/27 02:50:45;;;;;;;5.70;1.08;;;16.00;56.90;;;;;;6214700;23;20009;-75
2021/03/27 02:53:30;;;;;;;4.85;1.60;;;16.00;57.60;;;;;;6215431;23;20119;-75
2021/03/27 02:55:58;;;;;;;5.05;1.02;;;16.00;57.00;;;;;;6214596;23;20083;-74
2021/03/27 02:58:34;;;;;;;3.78;1.23;;;16.00;57.00;;;;;;6214415;23;20001;-75
2021/03/27 03:01:21;;;;;;;5.85;1.75;;;16.00;57.10;;;;;;6214649;23;20034;-74
2021/03/27 03:03:52;;;;;;;2.97;0.93;;;16.00;57.60;;;;;;6188059;23;20425;-74
2021/03/27 03:06:29;;;;;;;5.22;1.30;;;15.90;57.10;;;;;;6214779;23;20087;-74
2021/03/27 03:09:13;;;;;;;3.80;1.02;;;15.90;57.10;;;;;;6214776;23;20092;-72
2021/03/27 03:11:54;;;;;;;6.50;1.77;;;15.90;57.10;;;;;;6214494;23;20055;-75
2021/03/27 03:14:31;;;;;;;5.22;1.20;;;15.90;57.10;;;;;;6215029;23;20024;-72
2021/03/27 03:17:03;;;;;;;7.00;1.25;;;15.90;57.10;;;;;;6214515;23;20001;-73
2021/03/27 03:19:48;;;;;;;4.57;1.15;;;15.80;57.10;;;;;;6214414;23;20004;-72
2021/03/27 03:22:21;;;;;;;3.53;1.30;;;15.90;57.20;;;;;;6214781;23;20088;-75
2021/03/27 03:24:56;;;;;;;7.10;1.00;;;15.80;57.10;;;;;;6214568;23;20000;-74
2021/03/27 03:27:31;;;;;;;4.93;1.53;;;15.80;57.10;;;;;;6214652;23;20000;-74
2021/03/27 03:30:23;;;;;;;3.15;0.98;;;15.80;57.10;;;;;;6187687;23;20039;-75
2021/03/27 03:33:18;;;;;;;3.35;1.20;;;15.80;57.20;;;;;;6214536;23;19997;-73
2021/03/27 03:36:09;;;;;;;6.18;1.42;;;15.80;57.20;;;;;;6108653;23;20006;-72
2021/03/27 03:39:01;;;;;;;7.28;1.42;;;15.80;57.10;;;;;;6214033;23;20476;-74
2021/03/27 03:41:39;;;;;;;5.68;1.17;;;15.70;57.10;;;;;;6187408;23;20353;-73
2021/03/27 03:44:30;;;;;;;5.45;1.50;;;15.70;57.10;;;;;;6187573;23;20337;-73
2021/03/27 03:47:20;;;;;;;5.30;1.20;;;15.70;57.10;;;;;;6213906;23;20333;-72
2021/03/27 03:50:04;;;;;;;5.72;1.20;;;15.70;57.10;;;;;;6214635;23;20024;-73
2021/03/27 03:52:36;;;;;;;3.58;1.17;;;15.70;57.20;;;;;;6187129;23;20005;-73
2021/03/27 03:55:30;;;;;;;4.93;1.33;;;15.60;57.20;;;;;;6214167;23;20005;-72
2021/03/27 03:58:24;;;;;;;2.95;0.93;;;15.60;57.20;;;;;;6214344;23;20012;-72
2021/03/27 04:00:55;;;;;;;4.05;1.30;;;15.60;57.20;;;;;;6214216;23;20449;-71
2021/03/27 04:03:34;;;;;;;8.13;1.42;;;15.60;57.30;;;;;;6214030;23;20005;-71
2021/03/27 04:06:04;;;;;;;6.22;1.67;;;15.60;57.20;;;;;;6214310;23;20008;-71
2021/03/27 04:08:29;;;;;;;5.10;1.05;;;15.60;57.30;;;;;;6214266;23;20054;-71
2021/03/27 04:10:59;;;;;;;5.75;1.42;;;15.60;57.30;;;;;;6214072;23;20016;-73
2021/03/27 04:13:39;;;;;;;6.72;1.65;;;15.50;57.90;;;;;;6187305;23;20070;-72
2021/03/27 04:16:17;;;;;;;5.80;1.30;;;15.50;57.40;;;;;;6187031;23;20013;-72
2021/03/27 04:18:51;;;;;;;4.50;1.20;;;15.50;57.40;;;;;;6214144;23;19997;-74
2021/03/27 04:21:55;;;;;;;2.90;1.20;;;15.50;57.40;;;;;;6214138;23;20083;-71
2021/03/27 04:24:28;;;;;;;5.47;1.40;;;15.50;57.50;;;;;;6213708;23;20062;-75
2021/03/27 04:27:21;;;;;;;2.88;1.05;;;15.50;57.60;;;;;;6213610;23;20005;-73
2021/03/27 04:29:52;;;;;;;3.00;0.90;;;15.50;57.60;;;;;;6214185;23;20012;-71
2021/03/27 04:32:38;;;;;;;7.03;1.08;;;15.50;57.60;;;;;;6214340;23;20076;-73
2021/03/27 04:35:10;;;;;;;5.15;1.05;;;15.50;57.60;;;;;;6213690;23;20337;-73
2021/03/27 04:37:47;;;;;;;3.75;1.08;;;15.50;57.60;;;;;;6213733;23;20015;-73
2021/03/27 04:40:25;;;;;;;3.80;1.10;;;15.50;57.50;;;;;;6213986;23;20001;-71
2021/03/27 04:43:02;;;;;;;2.80;0.82;;;15.40;57.50;;;;;;6213894;23;20086;-71
2021/03/27 04:45:49;;;;;;;3.10;0.90;;;15.50;57.50;;;;;;6213491;23;20348;-72
2021/03/27 04:48:50;;;;;;;5.57;1.02;;;15.40;57.50;;;;;;6213631;23;19997;-73
2021/03/27 04:51:56;;;;;;;5.22;1.05;;;15.40;57.50;;;;;;6213541;23;20023;-75
2021/03/27 04:54:55;;;;;;;5.03;1.23;;;15.40;57.50;;;;;;6214052;23;20001;-75
2021/03/27 04:57:29;;;;;;;4.35;0.93;;;15.40;57.50;;;;;;6187891;23;20009;-74
2021/03/27 05:00:09;;;;;;;3.67;0.82;;;15.40;57.40;;;;;;6213765;23;20008;-74
2021/03/27 05:02:42;;;;;;;5.10;1.17;;;15.40;57.40;;;;;;6187096;23;20012;-76
2021/03/27 05:05:15;;;;;;;4.57;0.90;;;15.40;57.40;;;;;;6213756;23;20030;-77
2021/03/27 05:07:48;;;;;;;4.88;1.20;;;15.40;57.40;;;;;;6213631;23;20024;-78
2021/03/27 05:10:32;;;;;;;4.78;1.25;;;15.30;57.40;;;;;;6213518;23;20008;-77
2021/03/27 05:13:19;;;;;;;3.65;0.88;;;15.30;57.40;;;;;;6213566;23;20001;-77
2021/03/27 05:16:07;;;;;;;3.75;1.50;;;15.30;57.40;;;;;;6186848;23;20044;-76
2021/03/27 05:18:36;;;;;;;5.55;1.02;;;15.30;57.40;;;;;;6197519;23;20000;-76
2021/03/27 05:21:09;;;;;;;3.85;1.10;;;15.30;57.40;;;;;;6213492;23;20001;-76
2021/03/27 05:23:48;;;;;;;4.53;1.33;;;15.30;57.30;;;;;;6213816;23;20021;-76
2021/03/27 05:26:52;;;;;;;4.60;0.98;;;15.30;57.40;;;;;;6213708;23;20008;-77
2021/03/27 05:29:36;;;;;;;4.00;1.20;;;15.30;57.40;;;;;;6213858;23;20318;-77
2021/03/27 05:32:34;;;;;;;4.10;1.40;;;15.20;57.30;;;;;;6213601;23;20001;-76
2021/03/27 05:35:13;;;;;;;4.93;1.42;;;15.30;57.30;;;;;;6213967;23;20005;-76
2021/03/27 05:37:59;;;;;;;5.43;1.35;;;15.20;57.20;;;;;;6186905;23;20017;-77
2021/03/27 05:40:24;;;;;;;;;;;15.30;57.30;;;;;;6214001;23;20004;-74
2021/03/27 05:42:50;;;;;;;3.30;1.10;;;15.20;57.30;;;;;;6214038;23;19907;-75
2021/03/27 05:45:30;;;;;;;5.95;1.00;;;15.20;57.30;;;;;;6213271;23;20224;-74
2021/03/27 05:48:07;;;;;;;5.00;1.20;;;15.20;57.30;;;;;;6213304;23;20012;-76
2021/03/27 05:51:01;;;;;;;3.58;0.90;;;15.20;57.30;;;;;;6213365;23;20392;-76
2021/03/27 05:53:48;;;;;;;3.97;0.88;;;15.20;57.30;;;;;;6213514;23;20457;-77
2021/03/27 05:56:54;;;;;;;5.57;1.20;;;15.20;57.20;;;;;;6213372;23;20028;-76
2021/03/27 05:59:29;;;;;;;6.80;1.27;;;15.20;57.30;;;;;;6188158;23;20087;-76
2021/03/27 06:02:04;;;;;;;4.85;1.25;;;15.20;57.30;;;;;;6215050;23;20003;-72
2021/03/27 06:04:48;;;;;;;3.28;0.82;;;15.20;57.20;;;;;;6214933;23;20005;-72
2021/03/27 06:07:33;;;;;;;3.65;0.90;;;15.10;57.20;;;;;;6188545;23;19997;-73
2021/03/27 06:10:17;;;;;;;5.45;1.45;;;15.20;57.30;;;;;;6215123;23;20054;-72
2021/03/27 06:13:08;;;;;;;4.30;1.20;;;15.10;57.20;;;;;;6188414;23;20001;-72
2021/03/27 06:15:42;;;;;;;6.10;1.30;;;15.10;57.30;;;;;;6215131;23;20032;-72
2021/03/27 06:19:03;;;;;;;5.55;1.15;;;15.10;57.20;;;;;;6215294;23;20024;-73
2021/03/27 06:21:51;;;;;;;4.07;1.13;;;15.10;57.10;;;;;;6215135;23;20006;-73
2021/03/27 06:24:25;;;;;;;6.43;1.10;;;15.00;57.10;;;;;;6214954;23;20032;-74
2021/03/27 06:27:16;;;;;;;4.88;1.20;;;15.10;57.20;;;;;;6215044;23;19997;-76
2021/03/27 06:29:53;;;;;;;5.97;1.27;;;15.10;57.10;;;;;;6214713;23;20027;-72
2021/03/27 06:32:56;;;;;;;5.30;1.30;;;15.00;57.10;;;;;;6215075;23;20023;-73
2021/03/27 06:36:01;;;;;;;5.82;1.20;;;15.00;57.10;;;;;;6214953;23;20000;-74
2021/03/27 06:38:38;;;;;;;4.43;1.35;;;15.00;57.10;;;;;;6188468;23;20064;-73
2021/03/27 06:41:04;;;;;;;5.10;1.17;;;15.00;57.10;;;;;;6215052;23;20011;-74
2021/03/27 06:43:48;;;;;;;6.72;1.60;;;15.00;57.10;;;;;;6214695;23;20000;-74
2021/03/27 06:46:53;;;;;;;4.20;1.33;;;15.00;57.10;;;;;;6187777;23;20074;-72
2021/03/27 06:49:33;;;;;;;4.82;1.20;;;14.90;57.10;;;;;;6214477;23;20352;-75
2021/03/27 06:52:37;;;;;;;4.82;1.23;;;14.90;57.20;;;;;;6214918;23;20001;-72
2021/03/27 06:55:21;;;;;;;5.55;1.35;;;14.90;57.10;;;;;;6193988;23;20088;-74
2021/03/27 06:58:05;;;;;;;4.82;1.35;;;14.90;57.10;;;;;;6214792;23;20071;-75
2021/03/27 07:00:49;;;;;;;5.07;1.40;;;14.90;57.10;;;;;;6214665;23;20420;-73
2021/03/27 07:03:39;;;;;;;7.65;1.80;;;14.90;57.00;;;;;;6188111;23;20008;-73
2021/03/27 07:06:26;;;;;;;6.85;1.20;;;14.90;57.00;;;;;;6214689;23;20009;-74
2021/03/27 07:09:10;;;;;;;7.43;1.55;;;14.90;57.10;;;;;;6214495;23;20011;-74
2021/03/27 07:12:00;;;;;;;4.35;1.50;;;14.90;57.10;;;;;;6214468;23;20015;-74
2021/03/27 07:14:31;;;;;;;4.28;1.40;;;14.90;57.00;;;;;;6214745;23;20013;-72
2021/03/27 07:17:15;;;;;;;7.43;1.35;;;14.90;57.00;;;;;;6214538;23;20001;-75
2021/03/27 07:20:18;;;;;;;5.00;1.42;;;14.90;57.00;;;;;;6187749;23;20007;-72
2021/03/27 07:22:44;;;;;;;6.32;1.40;;;14.80;56.90;;;;;;6214492;23;20008;-72
2021/03/27 07:25:40;;;;;;;4.65;1.00;;;14.80;57.00;;;;;;6214495;23;20005;-74
2021/03/27 07:28:30;;;;;;;7.25;1.30;;;14.90;57.00;;;;;;6214458;23;20039;-72
2021/03/27 07:31:14;;;;;;;5.45;1.45;;;14.80;57.00;;;;;;6214153;23;20024;-74
2021/03/27 07:34:27;;;;;;;4.22;1.38;;;14.80;57.00;;;;;;6214307;23;20023;-72
2021/03/27 07:37:38;;;;;;;5.50;1.70;;;14.80;57.00;;;;;;6122981;23;20020;-73
2021/03/27 07:40:15;;;;;;;5.53;1.17;;;14.80;57.10;;;;;;6187681;23;20008;-73
2021/03/27 07:43:25;;;;;;;6.05;1.55;;;14.80;57.10;;;;;;6214541;23;20000;-76
2021/03/27 07:46:18;;;;;;;4.45;1.55;;;14.80;57.10;;;;;;6187519;23;20036;-73
2021/03/27 07:48:59;;;;;;;6.72;2.08;;;14.80;57.10;;;;;;6213782;23;20032;-73
2021/03/27 07:51:56;;;;;;;4.35;1.40;;;14.80;57.20;;;;;;6214262;23;20349;-76
2021/03/27 07:54:53;;;;;;;7.03;1.40;;;14.80;57.20;;;;;;6213897;23;19997;-74
2021/03/27 07:57:37;;;;;;;7.13;1.55;;;14.70;57.20;;;;;;6214227;23;20005;-74
2021/03/27 08:00:29;;;;;;;9.30;1.52;;;14.80;57.20;;;;;;6187408;23;20008;-75
2021/03/27 08:03:03;;;;;;;6.97;1.20;;;14.80;57.30;;;;;;6214086;23;20453;-77
2021/03/27 08:05:50;;;;;;;4.97;1.40;;;14.70;57.20;;;;;;6213827;23;20000;-72
2021/03/27 08:08:34;;;;;;;8.90;1.75;;;14.80;57.30;;;;;;6213777;23;20008;-76
2021/03/27 08:11:08;;;;;;;5.28;1.75;;;14.80;57.40;;;;;;6214435;23;20036;-76
2021/03/27 08:14:02;;;;;;;5.22;1.27;;;14.80;57.30;;;;;;6214005;23;19996;-73
2021/03/27 08:16:46;;;;;;;6.13;1.60;;;14.80;57.30;;;;;;6214049;23;20000;-74
2021/03/27 08:19:21;;;;;;;5.60;1.38;;;14.80;57.10;;;;;;6187321;23;20429;-78
2021/03/27 08:22:31;;;;;;;6.60;1.47;;;15.00;57.00;;;;;;6213835;23;20005;-79
2021/03/27 08:25:25;;;;;;;4.35;1.17;;;15.20;56.70;;;;;;6187032;23;20507;-77
2021/03/27 08:28:15;;;;;;;7.22;1.48;;;15.40;56.30;;;;;;6213845;23;20460;-76
2021/03/27 08:30:59;;;;;;;6.40;1.80;;;15.60;56.10;;;;;;6213975;23;20330;-78
2021/03/27 08:33:46;;;;;;;4.35;1.20;;;15.80;55.70;;;;;;6214045;23;19997;-76
2021/03/27 08:36:17;;;;;;;4.90;1.00;;;16.00;55.60;;;;;;6213357;23;20024;-74
2021/03/27 08:38:55;;;;;;;5.43;1.33;;;16.10;55.90;;;;;;6212261;23;20009;-77
2021/03/27 08:41:47;;;;;;;5.90;1.38;;;16.10;56.00;;;;;;6212326;23;20007;-77
2021/03/27 08:44:40;;;;;;;9.30;1.98;;;16.20;56.10;;;;;;6185898;23;20011;-76
2021/03/27 08:47:11;;;;;;;8.90;1.80;;;16.30;56.40;;;;;;6212524;23;20325;-79
2021/03/27 08:49:49;;;;;;;8.43;1.75;;;16.40;56.70;;;;;;6212381;23;20013;-76
2021/03/27 08:52:46;;;;;;;8.40;1.85;;;16.50;57.60;;;;;;6211935;23;20007;-77
2021/03/27 08:55:30;;;;;;;;;;;16.60;57.90;;;;;;6212627;23;20004;-74
2021/03/27 08:58:13;;;;;;;9.32;1.33;;;16.70;57.70;;;;;;6212557;23;19998;-76
2021/03/27 09:01:06;;;;;;;5.13;1.40;;;16.80;58.20;;;;;;6212511;23;20001;-74
2021/03/27 09:03:48;;;;;;;5.70;1.40;;;16.90;58.30;;;;;;6198541;23;20028;-78
2021/03/27 09:06:45;;;;;;;7.78;1.55;;;17.00;58.20;;;;;;6213406;23;20012;-76
2021/03/27 09:09:29;;;;;;;10.05;1.50;;;17.10;58.20;;;;;;6213483;23;20033;-76
2021/03/27 09:12:32;;;;;;;5.72;1.23;;;17.20;57.90;;;;;;6185236;23;20009;-77
2021/03/27 09:15:36;;;;;;;7.57;1.25;;;17.30;57.80;;;;;;6092154;23;20089;-76
2021/03/27 09:18:39;;;;;;;6.15;1.20;;;17.40;57.40;;;;;;6213448;23;19997;-76
2021/03/27 09:21:20;;;;;;;5.95;1.45;;;17.40;56.70;;;;;;6213047;23;20059;-76
2021/03/27 09:23:56;;;;;;;6.13;2.17;;;17.50;55.70;;;;;;6213290;23;20058;-80
2021/03/27 09:26:47;;;;;;;6.85;2.63;;;17.60;55.30;;;;;;6186684;23;20483;-78
2021/03/27 09:29:16;;;;;;;7.35;2.45;;;17.70;55.50;;;;;;6213161;23;20020;-79
2021/03/27 09:31:57;;;;;;;5.82;1.88;;;17.80;55.20;;;;;;6213204;23;20074;-78
2021/03/27 09:34:23;;;;;;;7.18;1.98;;;17.90;55.20;;;;;;6187252;23;20086;-78
2021/03/27 09:36:54;;;;;;;5.70;2.15;;;18.00;55.30;;;;;;6215207;23;20001;-80
2021/03/27 09:39:43;;;;;;;5.50;1.67;;;18.00;55.10;;;;;;6215470;23;20319;-80
2021/03/27 09:42:53;;;;;;;8.95;1.75;;;18.10;55.20;;;;;;6215140;23;20028;-77
2021/03/27 09:45:36;;;;;;;4.75;1.50;;;18.20;55.10;;;;;;6215171;23;20001;-78
2021/03/27 09:48:28;;;;;;;6.63;1.40;;;18.30;54.90;;;;;;6215924;23;20067;-80
2021/03/27 09:51:19;;;;;;;6.07;1.17;;;18.30;54.90;;;;;;6215008;23;20012;-79
2021/03/27 09:54:02;;;;;;;2.92;1.13;;;18.40;54.60;;;;;;6214887;23;19997;-79
2021/03/27 09:56:41;;;;;;;4.38;1.27;;;18.50;54.40;;;;;;6215233;23;20008;-79
2021/03/27 09:59:18;;;;;;;5.82;1.08;;;18.60;54.20;;;;;;6188330;23;20499;-79
2021/03/27 10:02:07;;;;;;;6.05;1.77;;;18.60;54.20;;;;;;6215342;23;20000;-79
2021/03/27 10:04:54;;;;;;;5.10;1.38;;;18.70;54.20;;;;;;6212895;23;20005;-78
2021/03/27 10:07:26;;;;;;;4.40;1.13;;;18.80;54.00;;;;;;6209711;23;20004;-79
2021/03/27 10:10:06;;;;;;;5.68;1.52;;;18.80;54.10;;;;;;6202435;23;20036;-78
2021/03/27 10:13:04;;;;;;;4.38;1.23;;;18.90;53.60;;;;;;6186714;23;20009;-77
2021/03/27 10:15:34;;;;;;;7.43;1.45;;;19.00;54.20;;;;;;6213287;23;20005;-75
2021/03/27 10:18:38;;;;;;;4.75;0.98;;;19.10;54.00;;;;;;6214462;23;20075;-77
2021/03/27 10:21:35;;;;;;;4.03;1.08;;;19.20;53.50;;;;;;6168301;23;20001;-78
2021/03/27 10:24:26;;;;;;;3.78;1.02;;;19.30;53.50;;;;;;6213077;23;20031;-74
2021/03/27 10:27:22;;;;;;;5.85;0.90;;;19.30;53.60;;;;;;6213953;23;20001;-75
2021/03/27 10:29:55;;;;;;;;;;;19.30;54.00;;;;;;6214445;23;20067;-76
2021/03/27 10:32:41;;;;;;;3.75;1.17;;;19.50;53.50;;;;;;6213923;23;19907;-76
2021/03/27 10:35:31;;;;;;;5.97;1.23;;;19.50;53.60;;;;;;6214089;23;20004;-74
2021/03/27 10:38:20;;;;;;;5.18;1.38;;;19.60;54.00;;;;;;6213823;23;20393;-75
2021/03/27 10:40:52;;;;;;;5.25;1.38;;;19.70;53.90;;;;;;6213721;23;20092;-75
2021/03/27 10:43:44;;;;;;;4.80;1.42;;;19.70;54.10;;;;;;6213321;23;20008;-75
2021/03/27 10:46:41;;;;;;;3.97;1.30;;;19.80;54.20;;;;;;6213310;23;20063;-74
2021/03/27 10:49:34;;;;;;;4.07;1.20;;;19.80;54.30;;;;;;6214184;23;20000;-77
2021/03/27 10:52:32;;;;;;;5.55;1.10;;;19.90;54.20;;;;;;6213685;23;20005;-74
2021/03/27 10:55:26;;;;;;;6.80;1.40;;;19.80;54.40;;;;;;6213631;23;20007;-78
2021/03/27 10:58:44;;;;;;;3.97;1.13;;;19.90;54.00;;;;;;6185786;23;20016;-76
2021/03/27 11:01:10;;;;;;;4.75;1.20;;;20.00;54.00;;;;;;6147711;23;20051;-76
2021/03/27 11:04:13;;;;;;;4.93;1.10;;;20.10;53.90;;;;;;6214839;23;20447;-74
2021/03/27 11:06:56;;;;;;;5.65;1.58;;;20.20;53.60;;;;;;6214070;23;20009;-72
2021/03/27 11:09:51;;;;;;;7.18;1.48;;;20.20;53.30;;;;;;6214594;23;20489;-72
2021/03/27 11:12:33;;;;;;;4.53;1.00;;;20.30;53.20;;;;;;6214322;23;20076;-75
2021/03/27 11:15:29;;;;;;;3.17;1.00;;;20.40;53.10;;;;;;6214294;23;20000;-75
2021/03/27 11:18:22;;;;;;;3.85;1.10;;;20.40;52.90;;;;;;6213483;23;20001;-78
2021/03/27 11:21:14;;;;;;;6.32;1.20;;;20.40;52.80;;;;;;6187525;23;20013;-73
2021/03/27 11:24:06;;;;;;;4.63;1.20;;;20.40;53.00;;;;;;6214751;23;19996;-75
2021/03/27 11:26:57;;;;;;;5.97;1.42;;;20.50;53.00;;;;;;6214285;23;20001;-75
2021/03/27 11:29:28;;;;;;;5.47;1.17;;;20.60;52.60;;;;;;6213563;23;20008;-76
2021/03/27 11:32:02;;;;;;;6.28;1.40;;;20.70;52.80;;;;;;6214174;23;20000;-72
2021/03/27 11:34:37;;;;;;;7.93;1.20;;;20.70;52.90;;;;;;6215499;23;20459;-73
2021/03/27 11:37:12;;;;;;;6.53;1.30;;;20.70;52.50;;;;;;6214963;23;20552;-72
2021/03/27 11:39:50;;;;;;;4.32;1.35;;;20.70;52.40;;;;;;6189188;23;20016;-73
2021/03/27 11:42:43;;;;;;;5.50;1.35;;;20.80;52.30;;;;;;6215667;23;20433;-74
2021/03/27 11:45:54;;;;;;;3.30;1.08;;;20.80;52.00;;;;;;6215663;23;20023;-74
2021/03/27 11:48:28;;;;;;;2.80;0.95;;;20.90;51.80;;;;;;6168899;23;20001;-73
2021/03/27 11:51:06;;;;;;;5.88;1.73;;;21.00;51.60;;;;;;6188738;23;20012;-75
2021/03/27 11:53:38;;;;;;;6.22;1.08;;;21.00;51.30;;;;;;6213969;23;20008;-75
2021/03/27 11:56:20;;;;;;;3.97;1.50;;;21.20;51.20;;;;;;6213768;23;20005;-75
2021/03/27 12:00:47;;;;;;;4.65;1.20;;;21.20;51.00;;;;;;6213965;23;20001;-74
2021/03/27 12:02:31;;;;;;;3.78;1.00;;;21.30;50.80;;;;;;6213648;23;20009;-75
2021/03/27 12:05:23;;;;;;;6.97;1.65;;;21.30;50.50;;;;;;6213469;23;20004;-76
2021/03/27 12:08:07;;;;;;;6.93;2.03;;;21.40;50.40;;;;;;6214053;23;20039;-73
2021/03/27 12:10:54;;;;;;;6.68;2.28;;;21.40;50.50;;;;;;6213747;23;20445;-75
2021/03/27 12:13:41;;;;;;;10.52;1.95;;;21.50;50.50;;;;;;6213379;23;20000;-75
2021/03/27 12:16:19;;;;;;;6.18;1.75;;;21.60;50.30;;;;;;6214112;23;20430;-73
2021/03/27 12:19:15;;;;;;;6.40;1.75;;;21.60;50.10;;;;;;6213729;23;20024;-74
2021/03/27 12:22:12;;;;;;;8.35;2.17;;;21.70;50.00;;;;;;6213898;23;20509;-75
2021/03/27 12:24:45;;;;;;;6.95;2.00;;;21.70;50.50;;;;;;6214269;23;19996;-73
2021/03/27 12:27:30;;;;;;;8.30;1.98;;;21.80;50.20;;;;;;6187675;23;20008;-73
2021/03/27 12:30:34;;;;;;;7.20;1.80;;;21.80;50.40;;;;;;6213590;23;20058;-72
2021/03/27 12:33:17;;;;;;;7.13;1.80;;;21.80;50.10;;;;;;6171114;23;20447;-73
2021/03/27 12:35:53;;;;;;;8.05;1.73;;;21.90;50.00;;;;;;6217407;23;20004;-74
2021/03/27 12:38:40;;;;;;;6.85;1.75;;;22.00;49.90;;;;;;6219065;23;20027;-73
2021/03/27 12:41:22;;;;;;;8.75;1.90;;;22.10;49.70;;;;;;6219171;23;20054;-73
2021/03/27 12:43:51;;;;;;;6.53;1.63;;;22.10;49.60;;;;;;6216898;23;20007;-72
2021/03/27 12:46:53;;;;;;;11.85;2.40;;;22.10;49.60;;;;;;6214954;23;20008;-73
2021/03/27 12:49:42;;;;;;;5.43;1.75;;;22.20;49.40;;;;;;6215290;23;20012;-74
2021/03/27 12:52:29;;;;;;;5.05;1.60;;;22.20;49.80;;;;;;6217045;23;20368;-75
2021/03/27 12:54:58;;;;;;;6.22;2.03;;;22.20;49.20;;;;;;6213472;23;20028;-74
2021/03/27 12:58:06;;;;;;;4.88;1.92;;;22.20;49.00;;;;;;6212612;23;20075;-73
2021/03/27 13:00:43;;;;;;;6.45;1.58;;;22.10;48.90;;;;;;6167560;23;20008;-74
2021/03/27 13:03:46;;;;;;;12.02;1.50;;;22.10;48.90;;;;;;6213855;23;20076;-73
2021/03/27 13:06:38;;;;;;;5.50;1.52;;;22.10;48.90;;;;;;6214278;23;20003;-72
2021/03/27 13:09:12;;;;;;;6.47;1.48;;;22.20;48.90;;;;;;6213792;23;20008;-73
2021/03/27 13:11:50;;;;;;;8.50;1.63;;;22.30;48.70;;;;;;6215438;23;20009;-73
2021/03/27 13:14:54;;;;;;;11.35;1.40;;;22.40;48.50;;;;;;6215838;23;20341;-73
2021/03/27 13:17:27;;;;;;;5.97;1.20;;;22.50;48.60;;;;;;6215682;23;20007;-73
2021/03/27 13:20:13;;;;;;;5.20;1.38;;;22.50;48.00;;;;;;6215031;23;20004;-74
2021/03/27 13:22:52;;;;;;;5.15;1.33;;;22.60;47.80;;;;;;6215552;23;20028;-75
2021/03/27 13:25:17;;;;;;;4.50;1.35;;;22.70;47.60;;;;;;6213590;23;20326;-74
2021/03/27 13:27:57;;;;;;;4.72;1.40;;;22.80;47.60;;;;;;6215159;23;20001;-74
2021/03/27 13:30:31;;;;;;;5.20;1.50;;;22.80;47.50;;;;;;6215156;23;20008;-75
2021/03/27 13:33:11;;;;;;;4.80;1.25;;;22.70;46.10;;;;;;6215007;23;19997;-75
2021/03/27 13:35:49;;;;;;;3.45;1.05;;;22.80;46.60;;;;;;6214907;23;20012;-73
2021/03/27 13:38:38;;;;;;;5.07;1.52;;;22.80;46.70;;;;;;6214823;23;20009;-73
2021/03/27 13:41:25;;;;;;;4.43;1.20;;;22.80;46.60;;;;;;6214935;23;20203;-73
2021/03/27 13:44:22;;;;;;;5.78;1.17;;;22.90;46.70;;;;;;6215497;23;20008;-73
2021/03/27 13:46:58;;;;;;;4.18;1.15;;;22.90;46.70;;;;;;6213419;23;20007;-72
2021/03/27 13:49:34;;;;;;;5.57;1.52;;;22.90;46.70;;;;;;6215332;23;20000;-73
2021/03/27 13:52:07;;;;;;;;;;;22.80;46.70;;;;;;6215527;23;20009;-74
2021/03/27 13:55:21;;;;;;;5.47;1.30;;;22.80;46.70;;;;;;6215375;23;19900;-74
2021/03/27 13:58:05;;;;;;;4.45;1.20;;;22.80;47.10;;;;;;6214009;23;20488;-76
2021/03/27 14:00:38;;;;;;;4.93;1.65;;;22.80;46.80;;;;;;6213968;23;20000;-75
2021/03/27 14:03:22;;;;;;;5.35;1.08;;;22.90;46.60;;;;;;6213775;23;20001;-73
2021/03/27 14:06:14;;;;;;;5.75;1.48;;;22.90;46.50;;;;;;6214296;23;20003;-74
2021/03/27 14:08:44;;;;;;;4.40;1.20;;;22.80;46.40;;;;;;6214658;23;20000;-73
2021/03/27 14:11:20;;;;;;;2.60;0.93;;;22.80;46.80;;;;;;6213734;23;20035;-74
2021/03/27 14:14:01;;;;;;;7.10;1.55;;;22.80;46.80;;;;;;6213734;23;20039;-74
2021/03/27 14:16:48;;;;;;;4.40;0.95;;;22.80;47.00;;;;;;6213900;23;20004;-74